Los Alamos, California
Current Conditions -  °F | °C
As of 2:35 PM on Sunday 23 Nov 2014 (Local Time) from KLPC Reporting Station
Clear Clear  
Wind Chill: 73°   Ceiling: Unl
Heat Index: 73°   Visibility: 10mi
Dew Point: 28°   Wind: 14mph
Humidity: 19%   Direction: 330°NNW
Pressure: 30.17"   Gusts: NA
Location:  34.74°N, 120.28°W
Report Text: KLPC 232235Z AUTO 33012KT 10SM CLR 23/M02 A3017 RMK AO1
Loading
Personal Weather Stations






























Interactive Weather Map New forecast layout! Learn more

10-Day Weather Forecast

Advertisements
Track Severe Weather on mobile